Time;durP1;ratioP1;P1;durP2;ratioP2;P2;SDS_P1;SDS_P2;PMS_P1;PMS_P2;Temp;Humidity;BMP_temperature;BMP_pressure;BME280_temperature;BME280_humidity;BME280_pressure;Samples;Min_cycle;Max_cycle;Signal;HPM_P1;HPM_P2
2020/02/18 00:01:27;;;;;;;0.3;0.2;;;;;;;9.04;56.26367;943.5733;;;;
2020/02/18 00:04:28;;;;;;;0.4;0.3;;;;;;;9.14;54.77441;943.7083;;;;
2020/02/18 00:07:00;;;;;;;0.8;0.3;;;;;;;9.05;55.45801;943.7969;;;;
2020/02/18 00:09:32;;;;;;;0.2;0.1;;;;;;;8.95;56.07129;943.6917;;;;
2020/02/18 00:12:19;;;;;;;0.2;0.1;;;;;;;8.93;56.63672;943.7849;;;;
2020/02/18 00:15:34;;;;;;;0.6;0.3;;;;;;;8.94;56.36621;943.8328;;;;
2020/02/18 00:18:05;;;;;;;0.3;0.2;;;;;;;9;56.10156;943.9217;;;;
2020/02/18 00:20:31;;;;;;;0.2;0.1;;;;;;;9.05;56.20898;943.9661;;;;
2020/02/18 00:23:25;;;;;;;0.6;0.3;;;;;;;9.19;57;943.9963;;;;
2020/02/18 00:25:57;;;;;;;0.1;0.1;;;;;;;9.03;56.62695;944.1013;;;;
2020/02/18 00:28:28;;;;;;;0.3;0.1;;;;;;;8.9;57.08789;944.1058;;;;
2020/02/18 00:33:16;;;;;;;0.7;0.2;;;;;;;8.76;58.8877;944.1155;;;;
2020/02/18 00:35:46;;;;;;;0.4;0.3;;;;;;;8.53;59.92578;944.0798;;;;
2020/02/18 00:38:14;;;;;;;0.6;0.1;;;;;;;8.47;61.18945;944.1273;;;;
2020/02/18 00:40:54;;;;;;;1.4;0.4;;;;;;;8.45;61.74316;944.0848;;;;
2020/02/18 00:43:18;;;;;;;0.7;0.3;;;;;;;8.43;62.45508;944.1279;;;;
2020/02/18 00:45:55;;;;;;;0.6;0.2;;;;;;;8.19;63.14941;944.093;;;;
2020/02/18 00:48:24;;;;;;;0.4;0.2;;;;;;;8.14;63.3457;944.2628;;;;
2020/02/18 00:50:58;;;;;;;0.4;0.2;;;;;;;8.04;64.1377;944.2148;;;;
2020/02/18 00:53:40;;;;;;;0.5;0.3;;;;;;;8.1;63.80566;944.2156;;;;
2020/02/18 00:56:12;;;;;;;1.1;0.5;;;;;;;8.26;63.89746;944.2185;;;;
2020/02/18 00:58:39;;;;;;;0.5;0.3;;;;;;;8.46;63.04004;944.2692;;;;
2020/02/18 01:01:20;;;;;;;0.5;0.3;;;;;;;8.35;60.45703;944.2454;;;;
2020/02/18 01:03:51;;;;;;;0.5;0.1;;;;;;;8.3;60.32617;944.2723;;;;
2020/02/18 01:06:25;;;;;;;0.1;0.1;;;;;;;8.36;59.9707;944.191;;;;
2020/02/18 01:14:15;;;;;;;0.4;0.2;;;;;;;8.24;59.71484;944.3073;;;;
2020/02/18 01:17:09;;;;;;;0.6;0.2;;;;;;;8.26;59.72852;944.3615;;;;
2020/02/18 01:19:42;;;;;;;0.6;0.2;;;;;;;8.32;59.79395;944.3258;;;;
2020/02/18 01:22:14;;;;;;;0.5;0.2;;;;;;;8.38;59.34766;944.416;;;;
2020/02/18 01:24:48;;;;;;;0.4;0.2;;;;;;;8.49;58.625;944.3233;;;;
2020/02/18 01:27:20;;;;;;;0.3;0.3;;;;;;;8.53;58.8916;944.3259;;;;
2020/02/18 01:29:55;;;;;;;0.4;0.2;;;;;;;8.42;60.25098;944.3998;;;;
2020/02/18 01:34:49;;;;;;;0.5;0.3;;;;;;;8.11;61.45703;944.5918;;;;
2020/02/18 01:37:37;;;;;;;0.7;0.2;;;;;;;8.25;61.48828;944.6381;;;;
2020/02/18 01:39:47;;;;;;;0.9;0.3;;;;;;;8.41;61.39648;944.6317;;;;
2020/02/18 01:42:22;;;;;;;0.2;0.1;;;;;;;8.55;60.93945;944.7266;;;;
2020/02/18 01:44:52;;;;;;;0.2;0.2;;;;;;;8.62;60.25684;944.7397;;;;
2020/02/18 01:47:20;;;;;;;0.5;0.2;;;;;;;8.55;60.84863;944.7391;;;;
2020/02/18 01:49:47;;;;;;;0.5;0.2;;;;;;;8.35;61.78711;944.851;;;;
2020/02/18 01:52:15;;;;;;;2.1;0.3;;;;;;;8.37;61.68652;944.8481;;;;
2020/02/18 01:54:43;;;;;;;0.4;0.1;;;;;;;8.27;62.64941;944.842;;;;
2020/02/18 01:57:32;;;;;;;0.2;0.1;;;;;;;8.28;62.65039;944.8333;;;;
2020/02/18 01:59:50;;;;;;;0.3;0.1;;;;;;;7.76;63.87988;944.7809;;;;
2020/02/18 02:02:17;;;;;;;0.3;0.1;;;;;;;7.55;64.21191;944.8883;;;;
2020/02/18 02:05:01;;;;;;;0.2;0.1;;;;;;;7.56;64.6084;944.9741;;;;
2020/02/18 02:07:29;;;;;;;0.5;0.1;;;;;;;7.43;65.59961;945.0184;;;;
2020/02/18 02:10:01;;;;;;;0.3;0.1;;;;;;;7.41;65.5957;944.998;;;;
2020/02/18 02:12:31;;;;;;;0.4;0.1;;;;;;;7.44;65.06738;945.0779;;;;
2020/02/18 02:15:05;;;;;;;0.5;0.2;;;;;;;7.36;66.01855;945.106;;;;
2020/02/18 02:17:29;;;;;;;0.5;0.1;;;;;;;7.63;64.50586;945.2673;;;;
2020/02/18 02:20:23;;;;;;;0.3;0.2;;;;;;;7.84;64.16309;945.3312;;;;
2020/02/18 02:22:56;;;;;;;0.3;0.2;;;;;;;7.79;64.54199;945.3082;;;;
2020/02/18 02:25:38;;;;;;;0.4;0.2;;;;;;;8;64.30176;945.256;;;;
2020/02/18 02:27:59;;;;;;;0;0;;;;;;;8;64.05078;945.3409;;;;
2020/02/18 02:30:26;;;;;;;1.8;0.1;;;;;;;8.09;63.38477;945.322;;;;
2020/02/18 02:32:54;;;;;;;0.5;0.1;;;;;;;8.05;64.05957;945.3435;;;;
2020/02/18 02:35:29;;;;;;;0.3;0.1;;;;;;;8.05;64.13867;945.3834;;;;
2020/02/18 02:38:04;;;;;;;0.9;0.1;;;;;;;7.77;64.71094;945.4813;;;;
2020/02/18 02:40:36;;;;;;;0.1;0.1;;;;;;;7.78;64.88086;945.5013;;;;
2020/02/18 02:43:05;;;;;;;0.3;0.2;;;;;;;7.59;65.39844;945.5204;;;;
2020/02/18 02:45:29;;;;;;;0.5;0.2;;;;;;;7.5;65.83691;945.5918;;;;
2020/02/18 02:47:59;;;;;;;0.7;0.3;;;;;;;7.18;67.41895;945.5316;;;;
2020/02/18 02:50:26;;;;;;;0.6;0.2;;;;;;;7.11;67.90625;945.6021;;;;
2020/02/18 02:52:58;;;;;;;0.5;0.2;;;;;;;7.03;68.33496;945.6082;;;;
2020/02/18 02:58:02;;;;;;;0.2;0.2;;;;;;;7.04;68.50684;945.6042;;;;
2020/02/18 03:00:42;;;;;;;0.4;0.1;;;;;;;7.04;68.6875;945.6044;;;;
2020/02/18 03:03:00;;;;;;;0.3;0.2;;;;;;;6.94;68.9209;945.6188;;;;
2020/02/18 03:05:27;;;;;;;0.9;0.3;;;;;;;6.87;67.33594;945.7488;;;;
2020/02/18 03:08:02;;;;;;;0.5;0.1;;;;;;;6.86;65.64746;945.6747;;;;
2020/02/18 03:13:16;;;;;;;0.3;0.1;;;;;;;6.59;64.36133;945.8178;;;;
2020/02/18 03:19:32;;;;;;;0.7;0.3;;;;;;;6.32;65.29492;945.7081;;;;
2020/02/18 03:20:55;;;;;;;1.9;0.4;;;;;;;6.16;65.43848;945.7277;;;;
2020/02/18 03:23:23;;;;;;;1.1;0.2;;;;;;;6.24;65.10156;945.6996;;;;
2020/02/18 03:25:47;;;;;;;0.6;0.3;;;;;;;6.3;64.47656;945.6107;;;;
2020/02/18 03:28:19;;;;;;;0.4;0.3;;;;;;;6.3;64.3291;945.6511;;;;
2020/02/18 03:32:38;;;;;;;1.1;0.3;;;;;;;6.33;64.33496;945.6619;;;;
2020/02/18 03:35:02;;;;;;;0.7;0.2;;;;;;;6.47;63.11133;945.5477;;;;
2020/02/18 03:37:29;;;;;;;0.5;0.3;;;;;;;6.52;63.49121;945.6451;;;;
2020/02/18 03:45:10;;;;;;;0.4;0.3;;;;;;;6.43;65.06055;945.5564;;;;
2020/02/18 03:47:37;;;;;;;0.8;0.3;;;;;;;6.51;66.21582;945.5627;;;;
2020/02/18 03:50:08;;;;;;;0.5;0.2;;;;;;;6.5;67.70703;945.7481;;;;
2020/02/18 03:52:40;;;;;;;0.7;0.2;;;;;;;6.19;69.05078;945.8375;;;;
2020/02/18 03:55:04;;;;;;;0.5;0.3;;;;;;;6.25;68.85547;945.7861;;;;
2020/02/18 03:57:46;;;;;;;2;0.4;;;;;;;6.25;69.60156;945.8525;;;;
2020/02/18 04:02:40;;;;;;;1.6;0.3;;;;;;;6.24;70.13184;945.8262;;;;
2020/02/18 04:05:06;;;;;;;0.3;0.2;;;;;;;6.37;69.29297;945.8524;;;;
2020/02/18 04:07:37;;;;;;;0.6;0.2;;;;;;;6.43;68.89648;945.873;;;;
2020/02/18 04:09:59;;;;;;;0.3;0.3;;;;;;;6.26;69.16113;945.9241;;;;
2020/02/18 04:12:24;;;;;;;1.7;0.4;;;;;;;5.89;71;946.0062;;;;
2020/02/18 04:14:54;;;;;;;1.1;0.5;;;;;;;5.76;72.37793;945.9698;;;;
2020/02/18 04:17:19;;;;;;;1.9;0.4;;;;;;;5.73;72.25098;946.0123;;;;
2020/02/18 04:20:23;;;;;;;1.3;0.4;;;;;;;5.78;70.31445;946.0536;;;;
2020/02/18 04:25:12;;;;;;;0.8;0.4;;;;;;;6.02;70.08398;946.1169;;;;
2020/02/18 04:27:42;;;;;;;0.5;0.3;;;;;;;6.05;69.58105;945.8851;;;;
2020/02/18 04:30:18;;;;;;;0.8;0.4;;;;;;;6.15;70.07227;945.8992;;;;
2020/02/18 04:32:46;;;;;;;2.2;0.7;;;;;;;5.87;70.47754;945.8971;;;;
2020/02/18 04:35:17;;;;;;;2;0.5;;;;;;;5.81;70.56934;945.8948;;;;
2020/02/18 04:37:42;;;;;;;2.5;0.6;;;;;;;5.73;71.26855;945.9871;;;;
2020/02/18 04:40:16;;;;;;;1.8;0.3;;;;;;;5.57;71.88281;946.0748;;;;
2020/02/18 04:42:40;;;;;;;1.7;0.3;;;;;;;5.78;70.94727;946.0031;;;;
2020/02/18 04:46:20;;;;;;;0.3;0.3;;;;;;;5.81;70.69336;946.0299;;;;
2020/02/18 04:47:54;;;;;;;1.1;0.4;;;;;;;5.91;70.70996;946.0911;;;;
2020/02/18 04:49:57;;;;;;;1.6;0.4;;;;;;;5.93;69.83203;946.0603;;;;
2020/02/18 04:52:22;;;;;;;1.4;0.6;;;;;;;5.97;70.3457;946.0941;;;;
2020/02/18 04:55:00;;;;;;;0.9;0.5;;;;;;;6.1;70.45898;946.0689;;;;
2020/02/18 04:57:29;;;;;;;0.6;0.4;;;;;;;6.17;69.54199;946.2104;;;;
2020/02/18 04:59:58;;;;;;;1.9;0.8;;;;;;;6.08;68.97363;946.1976;;;;
2020/02/18 05:02:23;;;;;;;1.8;0.7;;;;;;;5.97;69.55469;946.2411;;;;
2020/02/18 05:04:54;;;;;;;3.3;0.9;;;;;;;5.44;71.56836;946.3069;;;;
2020/02/18 05:07:25;;;;;;;1.7;0.8;;;;;;;5.17;72.27832;946.1495;;;;
2020/02/18 05:09:51;;;;;;;3.9;1.7;;;;;;;5.09;71.83691;946.2028;;;;
2020/02/18 05:12:25;;;;;;;2.5;1.4;;;;;;;5.28;72.30859;946.2238;;;;
2020/02/18 05:15:13;;;;;;;1.8;1.1;;;;;;;5.38;72.05566;946.3616;;;;
2020/02/18 05:17:25;;;;;;;1.1;0.8;;;;;;;5.43;71.35254;946.3292;;;;
2020/02/18 05:19:52;;;;;;;1.1;0.7;;;;;;;5.56;70.70898;946.2414;;;;
2020/02/18 05:22:29;;;;;;;3.4;1.1;;;;;;;5.76;70.30078;946.3279;;;;
2020/02/18 05:25:00;;;;;;;2.1;0.8;;;;;;;5.75;70.14063;946.3006;;;;
2020/02/18 05:27:28;;;;;;;1.7;0.8;;;;;;;5.75;69.80176;946.2808;;;;
2020/02/18 05:30:05;;;;;;;2.3;1;;;;;;;5.68;70.83008;946.2537;;;;
2020/02/18 05:33:50;;;;;;;6.2;3.3;;;;;;;5.6;71.17773;946.3117;;;;
2020/02/18 05:36:22;;;;;;;7.6;5.7;;;;;;;5.47;73.28809;946.3783;;;;
2020/02/18 05:38:51;;;;;;;6.7;3.7;;;;;;;5.52;71.93164;946.4767;;;;
2020/02/18 05:41:20;;;;;;;4.5;2.2;;;;;;;5.44;72.00879;946.4528;;;;
2020/02/18 05:43:50;;;;;;;3.3;2;;;;;;;5.43;70.91309;946.3205;;;;
2020/02/18 05:46:30;;;;;;;4.3;2.1;;;;;;;5.35;71.03418;946.4402;;;;
2020/02/18 05:48:57;;;;;;;2.5;1.3;;;;;;;5.29;70.86719;946.4749;;;;
2020/02/18 05:51:23;;;;;;;2.3;1.3;;;;;;;5.33;70.73828;946.4731;;;;
2020/02/18 05:54:01;;;;;;;4.6;1.7;;;;;;;5.25;71.35449;946.5129;;;;
2020/02/18 05:56:32;;;;;;;2.3;1.5;;;;;;;5.26;70.94043;946.4483;;;;
2020/02/18 05:59:05;;;;;;;2.8;1.6;;;;;;;5.05;71.36816;946.5042;;;;
2020/02/18 06:01:28;;;;;;;4.3;2;;;;;;;4.94;72.04883;946.3976;;;;
2020/02/18 06:03:56;;;;;;;3.5;1.9;;;;;;;4.96;72.06348;946.5089;;;;
2020/02/18 06:06:25;;;;;;;3.8;2.1;;;;;;;4.94;72.08105;946.4668;;;;
2020/02/18 06:08:51;;;;;;;4.5;2.7;;;;;;;4.97;72.67383;946.4122;;;;
2020/02/18 06:11:31;;;;;;;4.8;2.6;;;;;;;4.83;72.81738;946.5645;;;;
2020/02/18 06:13:56;;;;;;;4.6;3.4;;;;;;;4.72;72.81055;946.6091;;;;
2020/02/18 06:18:48;;;;;;;6.7;4.2;;;;;;;4.59;72.82324;946.6197;;;;
2020/02/18 06:21:16;;;;;;;5.6;2.6;;;;;;;4.52;72.93457;946.7594;;;;
2020/02/18 06:23:47;;;;;;;5;2.7;;;;;;;4.38;72.70898;946.7503;;;;
2020/02/18 06:26:22;;;;;;;4.3;2.8;;;;;;;4.36;72.82813;946.7177;;;;
2020/02/18 06:28:44;;;;;;;4.9;2.8;;;;;;;4.26;73.9375;946.885;;;;
2020/02/18 06:31:11;;;;;;;4.1;2.8;;;;;;;4.23;74.14648;946.9444;;;;
2020/02/18 06:34:56;;;;;;;4.1;2.8;;;;;;;4.27;73.84766;946.8956;;;;
2020/02/18 06:36:30;;;;;;;3.7;2.7;;;;;;;4.33;73.68945;946.8054;;;;
2020/02/18 06:38:45;;;;;;;6.3;2.9;;;;;;;4.34;73.90527;946.8903;;;;
2020/02/18 06:41:19;;;;;;;6.9;2.8;;;;;;;4.3;73.94238;946.8858;;;;
2020/02/18 06:43:51;;;;;;;7.3;3.4;;;;;;;4.35;74.76172;946.9568;;;;
2020/02/18 06:46:26;;;;;;;6.8;3.2;;;;;;;4.45;74.19434;947.031;;;;
2020/02/18 06:48:54;;;;;;;5.1;3.1;;;;;;;4.47;73.77051;947.0653;;;;
2020/02/18 06:51:23;;;;;;;9.9;7.2;;;;;;;4.44;73.16992;947.0301;;;;
2020/02/18 06:53:52;;;;;;;7;4.2;;;;;;;4.43;73.11133;947.0793;;;;
2020/02/18 06:56:18;;;;;;;5.9;3;;;;;;;4.45;73.24805;946.9615;;;;
2020/02/18 06:58:46;;;;;;;3.5;2;;;;;;;4.41;73.54785;946.9665;;;;
2020/02/18 07:01:15;;;;;;;6;3.2;;;;;;;4.55;73.41211;947.012;;;;
2020/02/18 07:04:17;;;;;;;5.1;2.9;;;;;;;4.53;73.49902;946.9852;;;;
2020/02/18 07:06:57;;;;;;;5.9;3.5;;;;;;;4.7;72.7627;946.9105;;;;
2020/02/18 07:10:04;;;;;;;6.2;2.7;;;;;;;4.82;72.43457;946.9667;;;;
2020/02/18 07:12:06;;;;;;;6.8;2.7;;;;;;;5.02;70.62988;946.967;;;;
2020/02/18 07:14:39;;;;;;;4.2;2.2;;;;;;;5.39;69.94629;947.0016;;;;
2020/02/18 07:21:50;;;;;;;4.9;1.9;;;;;;;7.08;63.46191;947.0154;;;;
2020/02/18 07:24:05;;;;;;;6.5;1.9;;;;;;;7.71;60.02637;947.0012;;;;
2020/02/18 07:40:21;;;;;;;4.7;2.5;;;;;;;10.85;52.66211;947.0745;;;;
2020/02/18 07:42:45;;;;;;;3.5;1.8;;;;;;;11.43;49.78027;947.0966;;;;
2020/02/18 07:45:12;;;;;;;3.8;1.2;;;;;;;11.3;49.13672;947.0563;;;;
2020/02/18 07:47:40;;;;;;;3.3;1.9;;;;;;;11.56;48.62891;947.0817;;;;
2020/02/18 07:50:13;;;;;;;3.7;2.1;;;;;;;13.07;45.69727;947.0497;;;;
2020/02/18 07:53:12;;;;;;;4.3;2.5;;;;;;;14.11;44.20605;947.0703;;;;
2020/02/18 07:56:11;;;;;;;6.7;4;;;;;;;14.76;41.13574;947.082;;;;
2020/02/18 07:58:11;;;;;;;8.7;4.7;;;;;;;15.8;38.63379;947.1633;;;;
2020/02/18 08:00:38;;;;;;;9.9;5;;;;;;;16.89;36.34277;946.9933;;;;
2020/02/18 08:03:07;;;;;;;7.3;4.5;;;;;;;16.86;36.58398;947.04;;;;
2020/02/18 08:05:38;;;;;;;9;5;;;;;;;15.68;38.14941;947.1404;;;;
2020/02/18 08:08:25;;;;;;;6.2;3.3;;;;;;;15.05;39.25977;947.1713;;;;
2020/02/18 08:10:51;;;;;;;4.6;3.1;;;;;;;16.51;36.0791;947.0334;;;;
2020/02/18 08:13:19;;;;;;;5.3;2.8;;;;;;;17.02;35.49609;947.0623;;;;
2020/02/18 08:16:06;;;;;;;5.7;2.6;;;;;;;18.38;33.07227;947.1094;;;;
2020/02/18 08:18:17;;;;;;;5.1;2.7;;;;;;;18.96;31.78809;947.2145;;;;
2020/02/18 08:20:47;;;;;;;4.6;3.2;;;;;;;18.82;32.63965;947.0759;;;;
2020/02/18 08:23:15;;;;;;;5.9;2.9;;;;;;;19.64;31.41797;947.0937;;;;
2020/02/18 08:25:41;;;;;;;4.6;2.7;;;;;;;19.22;32.19141;947.1141;;;;
2020/02/18 08:28:07;;;;;;;4.5;2.6;;;;;;;19.05;32.16699;947.0751;;;;
2020/02/18 08:31:03;;;;;;;3.5;1.7;;;;;;;17.31;33.95508;947.0648;;;;
2020/02/18 08:33:01;;;;;;;3.9;1.8;;;;;;;17.3;35.02051;947.015;;;;
2020/02/18 08:35:55;;;;;;;5;1.8;;;;;;;17.69;34.12305;947.0219;;;;
2020/02/18 08:37:55;;;;;;;3.4;1.1;;;;;;;17.27;34.16016;946.9691;;;;
2020/02/18 08:40:24;;;;;;;2;0.9;;;;;;;17.07;34.53809;946.9991;;;;
2020/02/18 08:42:53;;;;;;;3;1.5;;;;;;;17.16;34.68457;947.0415;;;;
2020/02/18 08:45:18;;;;;;;2.7;1.5;;;;;;;17.01;35.2168;946.9908;;;;
2020/02/18 08:47:45;;;;;;;3.4;1.1;;;;;;;16.45;35.6123;947.0422;;;;
2020/02/18 08:50:23;;;;;;;4;1.1;;;;;;;16.38;35.51465;947.0129;;;;
2020/02/18 08:52:55;;;;;;;2.2;0.9;;;;;;;16.64;35.65137;946.9486;;;;
2020/02/18 08:55:19;;;;;;;2.4;1.1;;;;;;;16.59;35.68164;946.9949;;;;
2020/02/18 08:57:43;;;;;;;2.5;1.1;;;;;;;17.72;32.96387;947.0322;;;;
2020/02/18 09:00:21;;;;;;;3.8;1.2;;;;;;;17.52;33.58789;947.0348;;;;
2020/02/18 09:02:47;;;;;;;3.7;1.3;;;;;;;18.13;32.56543;947.0179;;;;
2020/02/18 09:05:22;;;;;;;3.1;1.2;;;;;;;18.36;31.60547;946.9991;;;;
2020/02/18 09:07:54;;;;;;;3;1.2;;;;;;;18.17;32.37109;946.9089;;;;
2020/02/18 09:11:40;;;;;;;4;1.3;;;;;;;18.27;32.18066;946.8892;;;;
2020/02/18 09:15:02;;;;;;;3.9;1.2;;;;;;;19.31;30.52051;946.9573;;;;
2020/02/18 09:18:29;;;;;;;2.6;0.9;;;;;;;19.03;30.1748;946.9574;;;;
2020/02/18 09:21:48;;;;;;;2.2;0.9;;;;;;;19.2;30.08203;946.9874;;;;
2020/02/18 09:24:53;;;;;;;2.3;1.2;;;;;;;19.53;29.27734;946.9302;;;;
2020/02/18 09:28:13;;;;;;;2.9;1.3;;;;;;;19.35;29.92871;946.991;;;;
2020/02/18 09:31:18;;;;;;;20.6;3;;;;;;;17.81;30.47461;946.9006;;;;
2020/02/18 09:34:41;;;;;;;3.5;0.9;;;;;;;16.41;31.95215;946.6738;;;;
2020/02/18 09:38:13;;;;;;;3;0.8;;;;;;;15.9;33.77539;946.6716;;;;
2020/02/18 09:41:33;;;;;;;2.1;0.9;;;;;;;15.51;33.73438;946.8011;;;;
2020/02/18 09:44:53;;;;;;;19.7;2.1;;;;;;;14.79;35.41992;946.7927;;;;
2020/02/18 09:48:14;;;;;;;12.3;1.6;;;;;;;13.89;36.48633;946.7715;;;;
2020/02/18 09:51:35;;;;;;;3.1;1;;;;;;;14.3;35.20703;946.7792;;;;
2020/02/18 09:55:19;;;;;;;1.5;0.6;;;;;;;15.19;34.64453;946.7236;;;;
2020/02/18 09:58:40;;;;;;;1.9;0.8;;;;;;;15.24;32.30566;946.8068;;;;
2020/02/18 10:02:08;;;;;;;2;0.9;;;;;;;15.52;31.8291;946.6325;;;;
2020/02/18 10:05:31;;;;;;;3.1;1;;;;;;;16.48;30.76465;946.7319;;;;
2020/02/18 10:08:52;;;;;;;3.5;1;;;;;;;17.1;30.26367;946.7148;;;;
2020/02/18 10:12:25;;;;;;;1.5;0.7;;;;;;;17.58;27.95215;946.594;;;;
2020/02/18 10:15:45;;;;;;;8.9;1.3;;;;;;;17.24;28.2666;946.7856;;;;
2020/02/18 10:18:48;;;;;;;3.2;0.6;;;;;;;16.72;25.10742;946.5949;;;;
2020/02/18 10:22:12;;;;;;;5.3;0.7;;;;;;;15.74;26.21777;946.6203;;;;
2020/02/18 10:25:31;;;;;;;2.8;0.6;;;;;;;15.14;25.06348;946.741;;;;
2020/02/18 10:28:50;;;;;;;8.5;0.9;;;;;;;13.26;26.49414;946.6633;;;;
2020/02/18 10:32:05;;;;;;;2.4;0.6;;;;;;;13.23;28.04395;946.6727;;;;
2020/02/18 10:35:26;;;;;;;3.3;0.7;;;;;;;12.94;28.71387;946.6031;;;;
2020/02/18 10:38:51;;;;;;;7.2;0.9;;;;;;;13.05;27.92871;946.6224;;;;
2020/02/18 10:42:17;;;;;;;9.4;1;;;;;;;13.46;26.02344;946.5117;;;;
2020/02/18 10:45:44;;;;;;;1.8;0.9;;;;;;;13.7;26.69434;946.4691;;;;
2020/02/18 10:49:08;;;;;;;5;0.9;;;;;;;13.94;26.17871;946.4213;;;;
2020/02/18 10:52:26;;;;;;;2.6;0.6;;;;;;;14.36;26.46973;946.4551;;;;
2020/02/18 10:55:45;;;;;;;3.1;0.7;;;;;;;15.15;25.35254;946.412;;;;
2020/02/18 10:59:17;;;;;;;2.8;0.6;;;;;;;15.72;23.45508;946.4066;;;;
2020/02/18 11:02:41;;;;;;;4.3;0.7;;;;;;;15.88;22.93164;946.3816;;;;
2020/02/18 11:06:02;;;;;;;3.5;0.4;;;;;;;16.18;23.81543;946.3678;;;;
2020/02/18 11:09:21;;;;;;;1.6;0.3;;;;;;;17.85;21.45605;946.3205;;;;
2020/02/18 11:20:19;;;;;;;9.4;1.3;;;;;;;19.23;18.7168;946.233;;;;
2020/02/18 11:23:48;;;;;;;1.1;0.3;;;;;;;19.04;19.26758;946.2218;;;;
2020/02/18 11:27:22;;;;;;;2.6;0.6;;;;;;;20.33;18.26172;946.1902;;;;
2020/02/18 11:31:00;;;;;;;5.6;1.1;;;;;;;20.36;18.05176;946.1074;;;;
2020/02/18 11:34:28;;;;;;;4.5;0.7;;;;;;;19.82;20.64258;946.0762;;;;
2020/02/18 11:37:53;;;;;;;1.6;0.5;;;;;;;20.56;18.48145;945.9694;;;;
2020/02/18 11:41:07;;;;;;;2;0.7;;;;;;;22.83;17.75391;946.033;;;;
2020/02/18 11:44:55;;;;;;;0.9;0.4;;;;;;;24.87;15.05176;945.9045;;;;
2020/02/18 11:48:20;;;;;;;2.3;0.6;;;;;;;24.37;15.5293;945.8859;;;;
2020/02/18 11:55:15;;;;;;;1;0.4;;;;;;;23.43;15.67383;945.9405;;;;
2020/02/18 11:58:42;;;;;;;1.4;0.5;;;;;;;23.25;15.00879;945.8649;;;;
2020/02/18 12:02:03;;;;;;;2.8;0.4;;;;;;;23.59;15.00879;945.707;;;;
2020/02/18 12:05:35;;;;;;;2.6;0.7;;;;;;;24.53;16.18359;945.7408;;;;
2020/02/18 12:08:56;;;;;;;2.2;0.5;;;;;;;24.91;14.76953;945.7288;;;;
2020/02/18 12:12:33;;;;;;;3.2;0.4;;;;;;;24.06;14.45898;945.7467;;;;
2020/02/18 12:19:22;;;;;;;1.9;0.4;;;;;;;23.58;14.98438;945.6529;;;;
2020/02/18 12:26:11;;;;;;;1.9;0.5;;;;;;;24.63;14.64258;945.6075;;;;
2020/02/18 12:29:33;;;;;;;1;0.4;;;;;;;22.43;16.36523;945.5981;;;;
2020/02/18 12:32:50;;;;;;;2.6;0.7;;;;;;;23.64;15.15137;945.6848;;;;
2020/02/18 12:36:13;;;;;;;1.2;0.3;;;;;;;23.79;15.83887;945.5933;;;;
2020/02/18 12:39:39;;;;;;;0.9;0.4;;;;;;;24.17;14.42676;945.6147;;;;
2020/02/18 12:42:59;;;;;;;0.7;0.3;;;;;;;22.43;15.43848;945.6255;;;;
2020/02/18 12:46:25;;;;;;;2.9;0.5;;;;;;;22.96;14.54102;945.6714;;;;
2020/02/18 12:49:43;;;;;;;1.1;0.4;;;;;;;22.13;17.03418;945.6735;;;;
2020/02/18 12:53:01;;;;;;;4.1;0.6;;;;;;;21.56;17.17578;945.6129;;;;
2020/02/18 12:56:21;;;;;;;3.2;0.5;;;;;;;19.84;18.96387;945.6124;;;;
2020/02/18 12:59:53;;;;;;;1.4;0.6;;;;;;;21.45;17.89746;945.5237;;;;
2020/02/18 13:03:24;;;;;;;2.6;0.4;;;;;;;21.78;16.14258;945.4178;;;;
2020/02/18 13:10:42;;;;;;;1.4;0.3;;;;;;;18.41;18.99609;945.493;;;;
2020/02/18 13:14:18;;;;;;;1.5;0.6;;;;;;;16.89;21.60645;945.5186;;;;
2020/02/18 13:17:41;;;;;;;2.2;0.6;;;;;;;16.26;22.18848;945.5348;;;;
2020/02/18 13:34:01;;;;;;;3.7;0.8;;;;;;;14.89;23.49121;945.4048;;;;
2020/02/18 13:37:34;;;;;;;3.3;0.5;;;;;;;15.78;22.93848;945.3451;;;;
2020/02/18 13:40:45;;;;;;;3.1;0.7;;;;;;;15.42;22.74609;945.3597;;;;
2020/02/18 13:44:13;;;;;;;2.7;0.7;;;;;;;15.52;22.42773;945.3289;;;;
2020/02/18 13:47:28;;;;;;;1.3;0.5;;;;;;;15.36;23.1709;945.3138;;;;
2020/02/18 13:50:48;;;;;;;4.5;0.8;;;;;;;14.73;23.67871;945.3861;;;;
2020/02/18 13:54:07;;;;;;;3.3;0.7;;;;;;;14.86;23.88184;945.351;;;;
2020/02/18 13:57:26;;;;;;;6.7;1;;;;;;;14.45;24.91992;945.345;;;;
2020/02/18 14:00:44;;;;;;;1.9;0.5;;;;;;;13.85;24.05664;945.3372;;;;
2020/02/18 14:04:03;;;;;;;2.8;0.4;;;;;;;13.45;24.34473;945.2842;;;;
2020/02/18 14:07:30;;;;;;;1.4;0.5;;;;;;;12.97;24.77734;945.27;;;;
2020/02/18 14:10:56;;;;;;;3.7;0.9;;;;;;;12.96;24.90332;945.1749;;;;
2020/02/18 14:14:08;;;;;;;1.1;0.4;;;;;;;13;25.60645;945.1401;;;;
2020/02/18 14:17:32;;;;;;;6.1;1.5;;;;;;;13.12;26.10645;945.1719;;;;
2020/02/18 14:20:55;;;;;;;2.9;0.6;;;;;;;12.86;25.37891;945.2224;;;;
2020/02/18 14:24:19;;;;;;;2.4;0.6;;;;;;;13.05;25.06934;945.1553;;;;
2020/02/18 14:27:41;;;;;;;1.4;0.6;;;;;;;13.52;25.88965;945.1433;;;;
2020/02/18 14:31:06;;;;;;;2;0.5;;;;;;;14.57;23.88965;945.1108;;;;
2020/02/18 14:34:29;;;;;;;2.7;0.9;;;;;;;15.27;26.14355;945.0536;;;;
2020/02/18 14:37:48;;;;;;;2.5;0.7;;;;;;;14.5;29.50879;944.9326;;;;
2020/02/18 14:40:59;;;;;;;1.7;0.8;;;;;;;13.15;30.83008;944.8677;;;;
2020/02/18 14:44:03;;;;;;;1.1;0.6;;;;;;;12.64;30.19727;944.8591;;;;
2020/02/18 14:47:17;;;;;;;1.6;0.8;;;;;;;12.21;32.24121;944.7744;;;;
2020/02/18 14:50:47;;;;;;;3.4;0.8;;;;;;;12.21;31.61133;944.8837;;;;
2020/02/18 14:54:03;;;;;;;4.7;1.1;;;;;;;12.37;31.98926;944.78;;;;
2020/02/18 14:57:26;;;;;;;2.7;0.8;;;;;;;13.55;33.12305;944.8931;;;;
2020/02/18 15:00:53;;;;;;;5.6;1.8;;;;;;;15.78;28.99414;944.9316;;;;
2020/02/18 15:04:17;;;;;;;6.5;1.4;;;;;;;15.79;29.24902;944.9467;;;;
2020/02/18 15:07:36;;;;;;;3;1.1;;;;;;;17.47;26.05469;944.8728;;;;
2020/02/18 15:11:14;;;;;;;2.2;0.7;;;;;;;17.24;26.45898;944.8433;;;;
2020/02/18 15:14:32;;;;;;;4.1;1;;;;;;;16.42;28.89746;944.9228;;;;
2020/02/18 15:17:51;;;;;;;3.2;1;;;;;;;16.94;28.44531;944.8957;;;;
2020/02/18 15:21:24;;;;;;;3.3;1;;;;;;;16.09;28.74902;944.8757;;;;
2020/02/18 15:24:47;;;;;;;3.7;1;;;;;;;14.95;31.16504;944.9214;;;;
2020/02/18 15:28:31;;;;;;;2.4;1;;;;;;;15.74;29.56836;944.9315;;;;
2020/02/18 15:39:33;;;;;;;3.2;1.2;;;;;;;17.01;27.69629;944.9107;;;;
2020/02/18 15:42:56;;;;;;;6.3;1.1;;;;;;;16.31;27.6875;944.8853;;;;
2020/02/18 15:46:15;;;;;;;4;1.2;;;;;;;14.41;30.8623;944.825;;;;
2020/02/18 15:49:37;;;;;;;3.2;1.5;;;;;;;13.18;32.75;944.837;;;;
2020/02/18 15:53:00;;;;;;;7.4;1.7;;;;;;;12.23;35.20117;944.854;;;;
2020/02/18 15:56:24;;;;;;;3.2;1.6;;;;;;;11.61;36.00781;944.9509;;;;
2020/02/18 15:59:44;;;;;;;4.2;1.5;;;;;;;11.33;36.61426;944.927;;;;
2020/02/18 16:03:04;;;;;;;4.7;1.4;;;;;;;11.15;37.05664;944.9595;;;;
2020/02/18 16:06:35;;;;;;;5;1.6;;;;;;;10.75;37.9248;944.9131;;;;
2020/02/18 16:10:19;;;;;;;4.1;1.6;;;;;;;9.81;39.66602;945.0483;;;;
2020/02/18 16:13:45;;;;;;;3.8;1.4;;;;;;;9.54;40.37109;945.0203;;;;
2020/02/18 16:17:11;;;;;;;3.2;1.2;;;;;;;9.4;40.8252;944.9927;;;;
2020/02/18 16:20:33;;;;;;;3.6;1.1;;;;;;;9.39;40.56152;944.9519;;;;
2020/02/18 16:28:15;;;;;;;4.2;1.7;;;;;;;9.07;41.46387;944.965;;;;
2020/02/18 16:31:35;;;;;;;4.5;1.6;;;;;;;8.77;42.50488;945.0137;;;;
2020/02/18 16:35:13;;;;;;;16.4;6.1;;;;;;;8.75;42.83203;945.0387;;;;
2020/02/18 16:38:47;;;;;;;7.2;3.2;;;;;;;8.57;43.26953;945.0406;;;;
2020/02/18 16:41:52;;;;;;;9.1;1.8;;;;;;;8.6;43.23828;945.1296;;;;
2020/02/18 16:45:15;;;;;;;6.6;1.7;;;;;;;8.73;43.00098;945.1761;;;;
2020/02/18 16:49:06;;;;;;;5.9;1.2;;;;;;;8.46;43.90625;945.2646;;;;
2020/02/18 16:52:24;;;;;;;5.4;1.9;;;;;;;8.67;43.96191;945.2827;;;;
2020/02/18 16:56:20;;;;;;;7;2.4;;;;;;;8.61;44.38672;945.3759;;;;
2020/02/18 16:59:30;;;;;;;6.5;2;;;;;;;8.57;44.13281;945.3463;;;;
2020/02/18 17:03:00;;;;;;;9.2;2.3;;;;;;;8.27;45.20313;945.3281;;;;
2020/02/18 17:06:20;;;;;;;6.1;2.4;;;;;;;8.25;45.45117;945.4419;;;;
2020/02/18 17:09:45;;;;;;;12.4;3.2;;;;;;;8.28;45.19336;945.4474;;;;
2020/02/18 17:13:05;;;;;;;10.2;2.7;;;;;;;8.27;45.55566;945.5974;;;;
2020/02/18 17:16:42;;;;;;;30.5;3.5;;;;;;;8.22;45.52734;945.6172;;;;
2020/02/18 17:20:16;;;;;;;6.1;1.9;;;;;;;8.18;44.9668;945.6047;;;;
2020/02/18 17:23:40;;;;;;;5.4;1.9;;;;;;;8;45.75391;945.6852;;;;
2020/02/18 17:27:00;;;;;;;8.7;2;;;;;;;7.92;46.16602;945.6669;;;;
2020/02/18 17:30:20;;;;;;;6.7;3.5;;;;;;;8;46.28809;945.7598;;;;
2020/02/18 17:33:47;;;;;;;8.4;3.3;;;;;;;7.94;47.3584;945.7943;;;;
2020/02/18 17:37:13;;;;;;;8.9;3.1;;;;;;;7.93;47.2793;945.8281;;;;
2020/02/18 17:40:42;;;;;;;15.2;4.1;;;;;;;7.84;47.79004;945.8656;;;;
2020/02/18 17:44:06;;;;;;;14.7;6;;;;;;;7.36;48.95117;945.8937;;;;
2020/02/18 17:47:09;;;;;;;13.3;5.8;;;;;;;7.32;50.14648;945.9175;;;;
2020/02/18 17:50:31;;;;;;;14.3;3.2;;;;;;;7.11;50.8916;945.9725;;;;
2020/02/18 17:53:55;;;;;;;38.7;21.5;;;;;;;7.01;50.02051;945.9574;;;;
2020/02/18 17:57:25;;;;;;;12.7;6.1;;;;;;;6.99;50.42578;945.9643;;;;
2020/02/18 17:59:51;;;;;;;7.5;3.8;;;;;;;6.95;55.43652;946.0934;;;;
2020/02/18 18:02:17;;;;;;;7.7;3.4;;;;;;;6.93;54.78906;946.1022;;;;
2020/02/18 18:08:34;;;;;;;7.5;4;;;;;;;6.71;53.49414;946.1811;;;;
2020/02/18 18:10:06;;;;;;;12.8;4.1;;;;;;;6.6;54.24902;946.1805;;;;
2020/02/18 18:15:05;;;;;;;7.7;4.1;;;;;;;6.46;53.21387;946.2198;;;;
2020/02/18 18:17:34;;;;;;;8.9;5.1;;;;;;;6.45;53.18945;946.2583;;;;
2020/02/18 18:20:02;;;;;;;12.5;6.2;;;;;;;6.2;53.2832;946.2014;;;;
2020/02/18 18:22:42;;;;;;;13.2;4.7;;;;;;;6.12;53.88281;946.2996;;;;
2020/02/18 18:25:24;;;;;;;14.1;6.7;;;;;;;6.09;54.07129;946.2944;;;;
2020/02/18 18:27:55;;;;;;;12.4;3.9;;;;;;;6.14;53.48926;946.2829;;;;
2020/02/18 18:30:28;;;;;;;10.1;3.3;;;;;;;6.13;53.55664;946.3365;;;;
2020/02/18 18:32:55;;;;;;;8.5;4.4;;;;;;;5.83;54.00488;946.2957;;;;
2020/02/18 18:36:32;;;;;;;7.5;3.9;;;;;;;5.83;54.72754;946.3348;;;;
2020/02/18 18:39:22;;;;;;;26.1;18;;;;;;;5.86;54.49414;946.3178;;;;
2020/02/18 18:41:40;;;;;;;15.5;8.4;;;;;;;5.83;55.34766;946.3878;;;;
2020/02/18 18:44:29;;;;;;;601.9;403.1;;;;;;;5.69;54.9248;946.3859;;;;